createdAt,value
2023-03-08T00:01:31.461Z,6.93
2023-03-08T00:03:59.902Z,8.40
2023-03-08T00:06:28.348Z,8.70
2023-03-08T00:08:59.430Z,7.53
2023-03-08T00:11:28.949Z,6.59
2023-03-08T00:13:57.518Z,6.90
2023-03-08T00:16:25.555Z,8.42
2023-03-08T00:18:53.490Z,8.68
2023-03-08T00:21:21.792Z,7.54
2023-03-08T00:23:54.266Z,6.67
2023-03-08T00:26:22.186Z,7.38
2023-03-08T00:28:50.476Z,8.70
2023-03-08T00:31:18.732Z,8.03
2023-03-08T00:33:46.766Z,6.94
2023-03-08T00:36:18.452Z,6.66
2023-03-08T00:38:48.456Z,8.11
2023-03-08T00:41:17.008Z,8.68
2023-03-08T00:43:45.375Z,7.60
2023-03-08T00:46:13.960Z,6.66
2023-03-08T00:48:42.882Z,6.88
2023-03-08T00:51:14.810Z,8.37
2023-03-08T00:53:42.782Z,8.38
2023-03-08T00:56:10.986Z,7.26
2023-03-08T00:58:40.338Z,6.45
2023-03-08T01:01:13.773Z,7.22
2023-03-08T01:03:41.663Z,8.55
2023-03-08T01:06:13.395Z,7.95
2023-03-08T01:08:42.237Z,6.90
2023-03-08T01:11:23.162Z,6.50
2023-03-08T01:13:51.956Z,7.92
2023-03-08T01:16:33.208Z,8.76
2023-03-08T01:19:01.713Z,7.67
2023-03-08T01:21:31.508Z,6.68
2023-03-08T01:23:59.593Z,6.42
2023-03-08T01:26:27.970Z,7.86
2023-03-08T01:28:56.961Z,8.55
2023-03-08T01:31:28.013Z,7.52
2023-03-08T01:33:56.761Z,6.54
2023-03-08T01:36:27.700Z,6.41
2023-03-08T01:38:55.842Z,7.94
2023-03-08T01:41:28.464Z,8.57
2023-03-08T01:43:56.736Z,7.48
2023-03-08T01:46:35.811Z,6.52
2023-03-08T01:49:24.780Z,6.44
2023-03-08T01:52:07.013Z,8.16
2023-03-08T01:54:40.136Z,8.35
2023-03-08T01:57:20.745Z,7.20
2023-03-08T01:59:50.114Z,6.28
2023-03-08T02:02:27.930Z,6.72
2023-03-08T02:04:56.166Z,8.35
2023-03-08T02:07:24.150Z,8.36
2023-03-08T02:09:52.017Z,7.20
2023-03-08T02:12:20.270Z,6.34
2023-03-08T02:14:48.269Z,6.83
2023-03-08T02:17:16.196Z,8.25
2023-03-08T02:20:00.301Z,8.00
2023-03-08T02:22:28.470Z,6.82
2023-03-08T02:24:56.435Z,6.06
2023-03-08T02:27:26.430Z,6.71
2023-03-08T02:29:54.515Z,8.12
2023-03-08T02:32:23.289Z,7.70
2023-03-08T02:34:51.320Z,6.63
2023-03-08T02:37:19.185Z,6.30
2023-03-08T02:39:47.053Z,7.64
2023-03-08T02:42:14.958Z,8.45
2023-03-08T02:44:42.859Z,7.44
2023-03-08T02:47:11.006Z,6.44
2023-03-08T02:49:38.922Z,6.45
2023-03-08T02:52:07.013Z,7.95
2023-03-08T02:54:34.920Z,8.17
2023-03-08T02:57:02.789Z,7.06
2023-03-08T02:59:31.088Z,6.19
2023-03-08T03:01:59.749Z,6.79
2023-03-08T03:04:32.738Z,8.25
2023-03-08T03:07:01.598Z,7.95
2023-03-08T03:09:29.698Z,6.86
2023-03-08T03:11:57.642Z,6.26
2023-03-08T03:14:28.484Z,7.38
2023-03-08T03:16:56.637Z,8.28
2023-03-08T03:19:24.530Z,7.31
2023-03-08T03:21:52.393Z,6.32
2023-03-08T03:24:20.343Z,6.37
2023-03-08T03:26:51.281Z,7.80
2023-03-08T03:29:19.296Z,8.04
2023-03-08T03:31:48.645Z,6.92
2023-03-08T03:34:16.487Z,6.07
2023-03-08T03:36:44.540Z,6.80
2023-03-08T03:39:12.778Z,8.14
2023-03-08T03:41:40.719Z,7.65
2023-03-08T03:44:08.676Z,6.54
2023-03-08T03:46:36.646Z,5.79
2023-03-08T03:49:04.690Z,6.65
2023-03-08T03:51:32.768Z,8.07
2023-03-08T03:54:01.135Z,7.80
2023-03-08T03:56:29.155Z,6.66
2023-03-08T03:58:57.064Z,5.81
2023-03-08T04:01:30.316Z,6.34
2023-03-08T04:03:58.866Z,7.86
2023-03-08T04:06:32.332Z,8.25
2023-03-08T04:09:04.468Z,7.05
2023-03-08T04:11:38.596Z,6.05
2023-03-08T04:14:07.115Z,5.73
2023-03-08T04:16:38.363Z,7.10
2023-03-08T04:19:11.743Z,7.88
2023-03-08T04:21:40.112Z,6.84
2023-03-08T04:24:08.286Z,5.86
2023-03-08T04:26:36.372Z,5.60
2023-03-08T04:29:06.372Z,7.02
2023-03-08T04:31:35.809Z,7.83
2023-03-08T04:34:07.209Z,6.83
2023-03-08T04:36:35.129Z,5.84
2023-03-08T04:39:03.183Z,5.17
2023-03-08T04:41:31.231Z,5.96
2023-03-08T04:43:59.204Z,7.54
2023-03-08T04:46:28.371Z,7.38
2023-03-08T04:48:56.596Z,6.25
2023-03-08T04:51:26.296Z,5.40
2023-03-08T04:53:54.620Z,5.90
2023-03-08T04:56:22.693Z,7.46
2023-03-08T04:58:50.894Z,7.66
2023-03-08T05:01:22.479Z,6.51
2023-03-08T05:03:52.746Z,5.58
2023-03-08T05:06:23.609Z,5.35
2023-03-08T05:08:51.736Z,6.78
2023-03-08T05:11:26.531Z,7.69
2023-03-08T05:13:55.865Z,6.70
2023-03-08T05:16:25.059Z,5.68
2023-03-08T05:18:53.232Z,5.19
2023-03-08T05:21:22.910Z,6.42
2023-03-08T05:23:50.775Z,7.48
2023-03-08T05:26:18.986Z,6.64
2023-03-08T05:28:46.979Z,5.63
2023-03-08T05:31:18.081Z,5.44
2023-03-08T05:33:50.984Z,6.88
2023-03-08T05:36:18.957Z,7.68
2023-03-08T05:38:47.001Z,6.68
2023-03-08T05:41:16.535Z,5.70
2023-03-08T05:43:44.633Z,5.40
2023-03-08T05:46:16.757Z,6.77
2023-03-08T05:48:45.538Z,7.71
2023-03-08T05:51:17.052Z,6.84
2023-03-08T05:53:46.028Z,5.84
2023-03-08T05:56:19.965Z,5.32
2023-03-08T05:58:48.503Z,6.51
2023-03-08T06:01:25.737Z,7.59
2023-03-08T06:03:57.058Z,6.74
2023-03-08T06:06:27.614Z,5.76
2023-03-08T06:08:56.465Z,5.27
2023-03-08T06:11:24.981Z,6.47
2023-03-08T06:13:53.066Z,7.71
2023-03-08T06:16:21.217Z,7.06
2023-03-08T06:18:49.259Z,6.03
2023-03-08T06:21:21.238Z,5.34
2023-03-08T06:23:50.831Z,6.07
2023-03-08T06:26:19.752Z,7.60
2023-03-08T06:28:47.840Z,7.93
2023-03-08T06:31:18.941Z,6.82
2023-03-08T06:33:46.916Z,5.89
2023-03-08T06:36:18.281Z,5.66
2023-03-08T06:38:47.144Z,7.08
2023-03-08T06:41:17.677Z,8.02
2023-03-08T06:43:45.720Z,7.14
2023-03-08T06:46:19.460Z,6.16
2023-03-08T06:48:50.108Z,5.53
2023-03-08T06:51:19.087Z,6.44
2023-03-08T06:53:47.978Z,7.95
2023-03-08T06:56:17.910Z,8.02
2023-03-08T06:58:45.989Z,6.88
2023-03-08T07:01:14.228Z,6.01
2023-03-08T07:03:44.924Z,5.82
2023-03-08T07:06:13.250Z,7.23
2023-03-08T07:08:41.824Z,8.10
2023-03-08T07:11:10.536Z,7.19
2023-03-08T07:13:38.729Z,6.24
2023-03-08T07:16:12.851Z,5.61
2023-03-08T07:18:41.544Z,6.42
2023-03-08T07:21:10.439Z,7.85
2023-03-08T07:23:38.731Z,7.44
2023-03-08T07:26:08.087Z,6.46
2023-03-08T07:28:36.584Z,5.79
2023-03-08T07:31:05.036Z,6.58
2023-03-08T07:33:33.529Z,7.72
2023-03-08T07:36:02.427Z,7.04
2023-03-08T07:38:30.620Z,6.20
2023-03-08T07:40:58.810Z,5.62
2023-03-08T07:43:26.813Z,5.99
2023-03-08T07:45:54.760Z,7.56
2023-03-08T07:48:22.860Z,7.58
2023-03-08T07:50:50.788Z,6.65
2023-03-08T07:53:18.927Z,5.94
2023-03-08T07:55:46.898Z,5.46
2023-03-08T07:58:14.794Z,6.05
2023-03-08T08:01:04.238Z,7.68
2023-03-08T08:03:33.968Z,7.67
2023-03-08T08:06:04.179Z,6.78
2023-03-08T08:08:32.367Z,6.14
2023-03-08T08:11:00.509Z,5.70
2023-03-08T08:13:28.469Z,5.38
2023-03-08T08:16:01.835Z,5.56
2023-03-08T08:18:29.966Z,7.23
2023-03-08T08:21:10.492Z,8.00
2023-03-08T08:23:40.002Z,7.12
2023-03-08T08:26:12.020Z,6.37
2023-03-08T08:28:42.348Z,5.88
2023-03-08T08:31:17.861Z,5.84
2023-03-08T08:33:45.994Z,7.46
2023-03-08T08:36:18.490Z,8.14
2023-03-08T08:38:47.008Z,7.30
2023-03-08T08:41:17.794Z,6.57
2023-03-08T08:43:47.725Z,6.07
2023-03-08T08:46:17.222Z,5.71
2023-03-08T08:48:45.398Z,5.93
2023-03-08T08:51:14.278Z,7.62
2023-03-08T08:53:44.166Z,8.11
2023-03-08T08:56:30.532Z,7.24
2023-03-08T08:59:01.572Z,6.47
2023-03-08T09:01:32.542Z,6.02
2023-03-08T09:04:00.899Z,5.70
2023-03-08T09:06:31.047Z,5.45
2023-03-08T09:08:59.824Z,5.25
2023-03-08T09:11:28.598Z,5.14
2023-03-08T09:13:56.944Z,5.05
2023-03-08T09:16:32.080Z,5.20
2023-03-08T09:19:02.887Z,6.95
2023-03-08T09:21:32.221Z,8.39
2023-03-08T09:24:03.875Z,7.88
2023-03-08T09:26:33.337Z,7.26
2023-03-08T09:29:05.413Z,6.90
2023-03-08T09:31:36.546Z,6.62
2023-03-08T09:34:08.871Z,6.47
2023-03-08T09:36:39.749Z,6.49
2023-03-08T09:39:09.548Z,6.68
2023-03-08T09:41:49.897Z,6.89
2023-03-08T09:44:48.142Z,7.17
2023-03-08T09:47:36.478Z,7.36
2023-03-08T09:50:13.178Z,7.50
2023-03-08T09:52:57.270Z,7.52
2023-03-08T09:55:32.643Z,7.48
2023-03-08T09:58:22.838Z,7.41
2023-03-08T10:00:51.168Z,7.31
2023-03-08T10:03:47.306Z,7.22
2023-03-08T10:06:35.915Z,7.11
2023-03-08T10:09:21.465Z,7.02
2023-03-08T10:12:15.241Z,6.97
2023-03-08T10:14:53.907Z,6.93
2023-03-08T10:17:28.516Z,6.91
2023-03-08T10:20:02.061Z,6.92
2023-03-08T10:22:34.373Z,6.99
2023-03-08T10:25:16.918Z,7.05
2023-03-08T10:27:47.427Z,7.05
2023-03-08T10:30:19.682Z,7.04
2023-03-08T10:32:51.342Z,7.08
2023-03-08T10:35:50.260Z,7.12
2023-03-08T10:38:18.475Z,7.10
2023-03-08T10:40:46.534Z,7.04
2023-03-08T10:43:28.419Z,6.94
2023-03-08T10:46:06.082Z,6.83
2023-03-08T10:48:34.190Z,6.72
2023-03-08T10:51:15.521Z,6.60
2023-03-08T10:54:00.223Z,6.48
2023-03-08T10:56:44.756Z,6.37
2023-03-08T10:59:27.653Z,6.25
2023-03-08T11:02:00.389Z,6.12
2023-03-08T11:04:30.827Z,6.00
2023-03-08T11:06:59.266Z,5.86
2023-03-08T11:09:29.662Z,5.73
2023-03-08T11:12:00.299Z,5.62
2023-03-08T11:14:30.111Z,5.50
2023-03-08T11:17:18.100Z,5.39
2023-03-08T11:20:17.262Z,5.30
2023-03-08T11:23:15.700Z,6.29
2023-03-08T11:25:56.387Z,8.09
2023-03-08T11:28:39.477Z,7.55
2023-03-08T11:31:46.581Z,6.83
2023-03-08T11:34:52.680Z,6.31
2023-03-08T11:38:12.122Z,5.98
2023-03-08T11:41:00.761Z,5.72
2023-03-08T11:43:31.479Z,5.53
2023-03-08T11:46:10.577Z,5.39
2023-03-08T11:48:59.519Z,6.41
2023-03-08T11:51:34.929Z,8.05
2023-03-08T11:54:06.882Z,7.52
2023-03-08T11:56:47.490Z,6.85
2023-03-08T11:59:21.239Z,6.38
2023-03-08T12:02:03.269Z,6.13
2023-03-08T12:04:41.444Z,6.00
2023-03-08T12:07:20.137Z,5.95
2023-03-08T12:10:21.619Z,5.97
2023-03-08T12:13:33.217Z,6.11
2023-03-08T12:16:14.163Z,6.33
2023-03-08T12:19:22.357Z,6.54
2023-03-08T12:21:56.023Z,6.76
2023-03-08T12:24:49.659Z,6.83
2023-03-08T12:27:17.549Z,6.85
2023-03-08T12:30:14.570Z,6.84
2023-03-08T12:32:43.756Z,6.79
2023-03-08T12:35:27.757Z,6.73
2023-03-08T12:38:30.551Z,6.66
2023-03-08T12:40:58.518Z,6.58
2023-03-08T12:43:33.995Z,6.53
2023-03-08T12:46:10.637Z,6.48
2023-03-08T12:48:45.285Z,6.44
2023-03-08T12:51:13.364Z,6.38
2023-03-08T12:53:50.277Z,6.32
2023-03-08T12:56:51.100Z,6.27
2023-03-08T12:59:19.136Z,6.23
2023-03-08T13:01:56.748Z,6.20
2023-03-08T13:04:41.732Z,6.21
2023-03-08T13:08:04.015Z,6.20
2023-03-08T13:10:50.326Z,6.15
2023-03-08T13:13:44.593Z,6.10
2023-03-08T13:16:15.723Z,6.03
2023-03-08T13:18:48.536Z,5.96
2023-03-08T13:21:28.690Z,5.89
2023-03-08T13:24:27.088Z,5.81
2023-03-08T13:27:30.370Z,5.74
2023-03-08T13:30:08.177Z,5.67
2023-03-08T13:32:36.235Z,5.64
2023-03-08T13:35:05.555Z,5.60
2023-03-08T13:37:33.720Z,5.57
2023-03-08T13:40:02.131Z,5.53
2023-03-08T13:42:30.212Z,5.50
2023-03-08T13:45:17.789Z,5.48
2023-03-08T13:47:47.349Z,5.46
2023-03-08T13:50:28.806Z,5.43
2023-03-08T13:52:57.255Z,5.42
2023-03-08T13:55:32.954Z,5.42
2023-03-08T13:58:01.572Z,5.42
2023-03-08T14:00:33.606Z,5.41
2023-03-08T14:03:06.602Z,5.39
2023-03-08T14:05:43.795Z,5.37
2023-03-08T14:08:25.209Z,5.34
2023-03-08T14:11:01.883Z,5.31
2023-03-08T14:13:38.950Z,5.28
2023-03-08T14:16:09.484Z,5.25
2023-03-08T14:18:41.783Z,6.29
2023-03-08T14:21:32.575Z,8.15
2023-03-08T14:24:06.990Z,8.00
2023-03-08T14:26:38.368Z,7.25
2023-03-08T14:29:24.671Z,6.76
2023-03-08T14:32:05.089Z,6.42
2023-03-08T14:34:36.569Z,6.20
2023-03-08T14:37:25.390Z,6.01
2023-03-08T14:40:14.332Z,5.85
2023-03-08T14:42:48.893Z,5.72
2023-03-08T14:45:38.313Z,6.52
2023-03-08T14:48:29.024Z,8.62
2023-03-08T14:51:05.651Z,8.83
2023-03-08T14:53:40.259Z,7.93
2023-03-08T14:56:16.325Z,7.31
2023-03-08T14:58:49.234Z,6.90
2023-03-08T15:01:31.748Z,6.61
2023-03-08T15:04:00.444Z,6.93
2023-03-08T15:06:35.325Z,8.71
2023-03-08T15:09:07.564Z,9.52
2023-03-08T15:11:36.337Z,8.61
2023-03-08T15:14:05.035Z,7.82
2023-03-08T15:16:33.059Z,7.27
2023-03-08T15:19:01.096Z,6.95
2023-03-08T15:21:29.791Z,8.02
2023-03-08T15:23:58.188Z,9.61
2023-03-08T15:26:31.798Z,9.49
2023-03-08T15:29:03.483Z,8.48
2023-03-08T15:31:32.370Z,7.72
2023-03-08T15:34:01.606Z,7.20
2023-03-08T15:36:34.747Z,7.32
2023-03-08T15:39:04.685Z,8.98
2023-03-08T15:41:32.730Z,9.86
2023-03-08T15:44:04.333Z,8.98
2023-03-08T15:46:32.580Z,8.08
2023-03-08T15:49:00.562Z,7.49
2023-03-08T15:51:34.069Z,8.15
2023-03-08T15:54:04.011Z,9.78
2023-03-08T15:56:32.465Z,10.22
2023-03-08T15:59:00.622Z,9.19
2023-03-08T16:01:29.043Z,8.31
2023-03-08T16:03:57.797Z,7.68
2023-03-08T16:06:27.124Z,7.76
2023-03-08T16:08:55.427Z,9.32
2023-03-08T16:11:27.585Z,10.18
2023-03-08T16:13:56.164Z,9.29
2023-03-08T16:16:32.258Z,8.36
2023-03-08T16:19:10.802Z,7.67
2023-03-08T16:21:39.069Z,8.30
2023-03-08T16:24:07.160Z,9.81
2023-03-08T16:26:35.153Z,10.11
2023-03-08T16:29:03.169Z,9.10
2023-03-08T16:31:33.577Z,8.20
2023-03-08T16:34:06.143Z,7.56
2023-03-08T16:36:34.538Z,7.58
2023-03-08T16:39:03.160Z,9.12
2023-03-08T16:41:34.040Z,10.00
2023-03-08T16:44:02.138Z,9.10
2023-03-08T16:46:30.301Z,8.14
2023-03-08T16:48:59.683Z,7.44
2023-03-08T16:51:30.635Z,7.82
2023-03-08T16:53:58.672Z,9.37
2023-03-08T16:56:29.257Z,10.09
2023-03-08T16:59:00.459Z,9.10
2023-03-08T17:01:29.762Z,8.10
2023-03-08T17:03:58.940Z,7.53
2023-03-08T17:06:31.716Z,8.59
2023-03-08T17:08:59.781Z,9.49
2023-03-08T17:11:31.288Z,8.64
2023-03-08T17:14:03.917Z,7.70
2023-03-08T17:16:33.200Z,7.19
2023-03-08T17:19:06.194Z,8.32
2023-03-08T17:21:38.589Z,9.75
2023-03-08T17:24:13.913Z,9.65
2023-03-08T17:26:45.813Z,8.38
2023-03-08T17:29:17.158Z,7.45
2023-03-08T17:31:48.621Z,7.30
2023-03-08T17:34:21.048Z,8.74
2023-03-08T17:36:50.314Z,9.68
2023-03-08T17:39:18.412Z,8.78
2023-03-08T17:41:46.619Z,7.72
2023-03-08T17:44:14.638Z,7.31
2023-03-08T17:46:42.636Z,8.56
2023-03-08T17:49:13.071Z,9.66
2023-03-08T17:51:42.651Z,8.96
2023-03-08T17:54:11.877Z,7.83
2023-03-08T17:56:41.073Z,7.15
2023-03-08T17:59:15.385Z,8.07
2023-03-08T18:01:43.856Z,9.54
2023-03-08T18:04:11.943Z,9.52
2023-03-08T18:06:42.735Z,8.30
2023-03-08T18:09:15.398Z,7.33
2023-03-08T18:11:43.338Z,7.06
2023-03-08T18:14:14.158Z,8.41
2023-03-08T18:16:44.741Z,9.68
2023-03-08T18:19:12.894Z,9.22
2023-03-08T18:21:41.587Z,7.99
2023-03-08T18:24:13.884Z,7.10
2023-03-08T18:26:41.929Z,7.48
2023-03-08T18:29:09.991Z,8.89
2023-03-08T18:31:38.947Z,9.50
2023-03-08T18:34:08.158Z,8.42
2023-03-08T18:36:37.159Z,7.33
2023-03-08T18:39:07.197Z,6.70
2023-03-08T18:41:35.379Z,7.65
2023-03-08T18:44:03.695Z,9.08
2023-03-08T18:46:37.363Z,8.87
2023-03-08T18:49:08.806Z,7.71
2023-03-08T18:51:39.419Z,6.82
2023-03-08T18:54:09.170Z,7.32
2023-03-08T18:56:37.394Z,8.80
2023-03-08T18:59:07.210Z,9.47
2023-03-08T19:01:36.665Z,8.40
2023-03-08T19:04:06.281Z,7.30
2023-03-08T19:06:36.053Z,6.95
2023-03-08T19:09:15.914Z,8.27
2023-03-08T19:11:45.442Z,9.49
2023-03-08T19:14:13.420Z,8.82
2023-03-08T19:16:41.968Z,7.60
2023-03-08T19:19:15.305Z,6.81
2023-03-08T19:21:46.821Z,7.60
2023-03-08T19:24:16.747Z,9.04
2023-03-08T19:26:47.517Z,9.30
2023-03-08T19:29:26.671Z,8.05
2023-03-08T19:31:56.856Z,6.96
2023-03-08T19:34:29.593Z,6.74
2023-03-08T19:36:58.638Z,8.13
2023-03-08T19:39:30.014Z,9.36
2023-03-08T19:42:01.645Z,9.21
2023-03-08T19:44:31.242Z,7.89
2023-03-08T19:46:59.684Z,6.96
2023-03-08T19:49:30.964Z,7.49
2023-03-08T19:52:02.095Z,8.90
2023-03-08T19:54:30.907Z,9.31
2023-03-08T19:56:59.817Z,8.11
2023-03-08T19:59:27.832Z,7.06
2023-03-08T20:01:56.537Z,6.87
2023-03-08T20:04:25.095Z,8.22
2023-03-08T20:06:53.106Z,9.28
2023-03-08T20:09:22.540Z,8.66
2023-03-08T20:11:53.386Z,7.46
2023-03-08T20:14:23.315Z,6.60
2023-03-08T20:16:51.514Z,7.11
2023-03-08T20:19:20.049Z,8.58
2023-03-08T20:21:48.158Z,9.61
2023-03-08T20:24:18.634Z,9.05
2023-03-08T20:26:47.060Z,7.74
2023-03-08T20:29:15.582Z,6.80
2023-03-08T20:31:45.205Z,6.60
2023-03-08T20:34:13.467Z,7.96
2023-03-08T20:36:41.330Z,9.23
2023-03-08T20:39:09.600Z,9.54
2023-03-08T20:41:37.521Z,8.29
2023-03-08T20:44:05.535Z,7.20
2023-03-08T20:46:33.942Z,6.67
2023-03-08T20:49:01.987Z,7.80
2023-03-08T20:51:29.958Z,9.13
2023-03-08T20:53:57.955Z,9.12
2023-03-08T20:56:26.471Z,7.90
2023-03-08T20:58:57.525Z,6.90
2023-03-08T21:01:31.721Z,6.75
2023-03-08T21:03:59.915Z,8.17
2023-03-08T21:06:31.504Z,9.32
2023-03-08T21:09:00.598Z,9.38
2023-03-08T21:11:30.887Z,8.09
2023-03-08T21:13:59.557Z,7.02
2023-03-08T21:16:28.850Z,6.76
2023-03-08T21:18:59.873Z,8.10
2023-03-08T21:21:35.537Z,9.35
2023-03-08T21:24:16.375Z,9.57
2023-03-08T21:26:45.529Z,8.19
2023-03-08T21:29:16.899Z,7.10
2023-03-08T21:31:49.328Z,6.79
2023-03-08T21:34:18.797Z,8.12
2023-03-08T21:36:46.849Z,9.31
2023-03-08T21:39:15.025Z,9.15
2023-03-08T21:41:46.575Z,7.86
2023-03-08T21:44:18.882Z,6.87
2023-03-08T21:46:51.473Z,7.01
2023-03-08T21:49:24.233Z,8.43
2023-03-08T21:51:53.869Z,9.22
2023-03-08T21:54:23.716Z,8.16
2023-03-08T21:56:52.577Z,7.06
2023-03-08T21:59:24.088Z,6.82
2023-03-08T22:01:54.324Z,8.16
2023-03-08T22:04:22.487Z,9.22
2023-03-08T22:06:50.741Z,8.47
2023-03-08T22:09:18.779Z,7.28
2023-03-08T22:11:46.857Z,6.88
2023-03-08T22:14:14.752Z,8.07
2023-03-08T22:16:42.788Z,9.21
2023-03-08T22:19:11.395Z,8.67
2023-03-08T22:21:39.413Z,7.45
2023-03-08T22:24:07.858Z,6.90
2023-03-08T22:26:36.399Z,7.99
2023-03-08T22:29:04.770Z,9.12
2023-03-08T22:31:33.834Z,8.53
2023-03-08T22:34:02.221Z,7.35
2023-03-08T22:36:30.457Z,6.53
2023-03-08T22:38:58.680Z,7.18
2023-03-08T22:41:28.246Z,8.56
2023-03-08T22:43:56.577Z,9.05
2023-03-08T22:46:27.632Z,7.90
2023-03-08T22:48:58.394Z,6.87
2023-03-08T22:51:28.561Z,6.91
2023-03-08T22:53:57.168Z,8.28
2023-03-08T22:56:33.313Z,9.37
2023-03-08T22:59:02.896Z,8.85
2023-03-08T23:01:33.059Z,7.62
2023-03-08T23:04:07.475Z,6.72
2023-03-08T23:06:35.651Z,7.25
2023-03-08T23:09:07.269Z,8.71
2023-03-08T23:11:37.152Z,9.25
2023-03-08T23:14:06.662Z,8.12
2023-03-08T23:16:41.513Z,7.01
2023-03-08T23:19:18.342Z,7.12
2023-03-08T23:21:46.657Z,8.51
2023-03-08T23:24:17.404Z,9.20
2023-03-08T23:26:49.004Z,8.13
2023-03-08T23:29:16.999Z,7.01
2023-03-08T23:31:46.957Z,7.04
2023-03-08T23:34:15.533Z,8.35
2023-03-08T23:36:43.584Z,9.16
2023-03-08T23:39:11.538Z,8.22
2023-03-08T23:41:41.107Z,7.13
2023-03-08T23:44:11.057Z,6.79
2023-03-08T23:46:39.853Z,8.06
2023-03-08T23:49:09.665Z,9.21
2023-03-08T23:51:37.776Z,9.09
2023-03-08T23:54:06.031Z,7.81
2023-03-08T23:56:40.265Z,6.82
2023-03-08T23:59:19.141Z,6.77
